Terminal Aerodrome Forecast
Issued by NWS Blacksburg, VA

Current Version | Previous Version | Graphics & Text | Print | Product List | Glossary On
Versions: 1 2 3 4 5 6 7 8 9 10 11 12 13 14 15 16 17 18 19 20 21 22 23 24 25 26 27 28 29 30 31 32 33 34 35
036
FTUS41 KRNK 121626 AAB
TAFBLF
TAF AMD
KBLF 121626Z 1216/1312 22005KT 1SM -SN BKN015 OVC030
     FM121800 29010G20KT 3SM -SHSN BKN012 OVC025
      TEMPO 1222/1302 2SM -SN OVC007
     FM130200 30016G35KT 3SM -SHSN BKN007
      TEMPO 1304/1308 1SM -SN=

USA.gov is the U.S. government's official web portal to all federal, state and local government web resources and services.